sensor_id;sensor_type;location;lat;lon;timestamp;P1;durP1;ratioP1;P2;durP2;ratioP2
67528;SDS011;54366;51.980;5.856;2022-12-29T00:00:02;2.25;;;2.05;;
67528;SDS011;54366;51.980;5.856;2022-12-29T00:02:38;2.38;;;2.17;;
67528;SDS011;54366;51.980;5.856;2022-12-29T00:05:05;2.33;;;2.08;;
67528;SDS011;54366;51.980;5.856;2022-12-29T00:07:31;2.67;;;1.92;;
67528;SDS011;54366;51.980;5.856;2022-12-29T00:09:58;2.40;;;2.13;;
67528;SDS011;54366;51.980;5.856;2022-12-29T00:12:24;2.58;;;2.00;;
67528;SDS011;54366;51.980;5.856;2022-12-29T00:14:50;2.30;;;2.10;;
67528;SDS011;54366;51.980;5.856;2022-12-29T00:20:01;2.08;;;1.88;;
67528;SDS011;54366;51.980;5.856;2022-12-29T00:22:46;3.22;;;2.25;;
67528;SDS011;54366;51.980;5.856;2022-12-29T00:25:31;1.92;;;1.70;;
67528;SDS011;54366;51.980;5.856;2022-12-29T00:28:16;2.45;;;2.03;;
67528;SDS011;54366;51.980;5.856;2022-12-29T00:31:01;2.30;;;2.00;;
67528;SDS011;54366;51.980;5.856;2022-12-29T00:33:46;2.10;;;2.00;;
67528;SDS011;54366;51.980;5.856;2022-12-29T00:36:44;2.50;;;2.10;;
67528;SDS011;54366;51.980;5.856;2022-12-29T00:39:14;2.63;;;1.88;;
67528;SDS011;54366;51.980;5.856;2022-12-29T00:42:05;2.97;;;2.00;;
67528;SDS011;54366;51.980;5.856;2022-12-29T00:44:51;2.33;;;1.77;;
67528;SDS011;54366;51.980;5.856;2022-12-29T00:47:17;2.15;;;2.00;;
67528;SDS011;54366;51.980;5.856;2022-12-29T00:49:43;2.03;;;1.80;;
67528;SDS011;54366;51.980;5.856;2022-12-29T00:52:11;2.03;;;1.80;;
67528;SDS011;54366;51.980;5.856;2022-12-29T00:54:39;1.92;;;1.70;;
67528;SDS011;54366;51.980;5.856;2022-12-29T00:57:07;2.33;;;1.80;;
67528;SDS011;54366;51.980;5.856;2022-12-29T00:59:38;1.80;;;1.70;;
67528;SDS011;54366;51.980;5.856;2022-12-29T01:02:05;1.50;;;1.40;;
67528;SDS011;54366;51.980;5.856;2022-12-29T01:04:32;2.10;;;1.63;;
67528;SDS011;54366;51.980;5.856;2022-12-29T01:06:58;1.42;;;1.30;;
67528;SDS011;54366;51.980;5.856;2022-12-29T01:09:25;1.88;;;1.40;;
67528;SDS011;54366;51.980;5.856;2022-12-29T01:12:15;1.42;;;1.27;;
67528;SDS011;54366;51.980;5.856;2022-12-29T01:14:41;1.75;;;1.20;;
67528;SDS011;54366;51.980;5.856;2022-12-29T01:17:07;1.60;;;1.05;;
67528;SDS011;54366;51.980;5.856;2022-12-29T01:19:33;1.25;;;0.77;;
67528;SDS011;54366;51.980;5.856;2022-12-29T01:22:00;1.38;;;0.85;;
67528;SDS011;54366;51.980;5.856;2022-12-29T01:24:27;0.80;;;0.70;;
67528;SDS011;54366;51.980;5.856;2022-12-29T01:26:53;1.15;;;0.70;;
67528;SDS011;54366;51.980;5.856;2022-12-29T01:29:20;1.38;;;0.65;;
67528;SDS011;54366;51.980;5.856;2022-12-29T01:31:46;1.30;;;0.50;;
67528;SDS011;54366;51.980;5.856;2022-12-29T01:34:12;0.80;;;0.40;;
67528;SDS011;54366;51.980;5.856;2022-12-29T01:36:39;0.98;;;0.80;;
67528;SDS011;54366;51.980;5.856;2022-12-29T01:39:05;0.50;;;0.45;;
67528;SDS011;54366;51.980;5.856;2022-12-29T01:41:32;0.40;;;0.32;;
67528;SDS011;54366;51.980;5.856;2022-12-29T01:44:00;1.08;;;0.60;;
67528;SDS011;54366;51.980;5.856;2022-12-29T01:46:36;1.33;;;0.60;;
67528;SDS011;54366;51.980;5.856;2022-12-29T01:49:22;0.73;;;0.50;;
67528;SDS011;54366;51.980;5.856;2022-12-29T01:51:54;0.75;;;0.47;;
67528;SDS011;54366;51.980;5.856;2022-12-29T01:54:32;1.15;;;0.60;;
67528;SDS011;54366;51.980;5.856;2022-12-29T01:57:03;1.05;;;0.60;;
67528;SDS011;54366;51.980;5.856;2022-12-29T01:59:34;1.15;;;0.77;;
67528;SDS011;54366;51.980;5.856;2022-12-29T02:02:10;1.38;;;0.68;;
67528;SDS011;54366;51.980;5.856;2022-12-29T02:04:38;0.70;;;0.70;;
67528;SDS011;54366;51.980;5.856;2022-12-29T02:07:11;0.70;;;0.60;;
67528;SDS011;54366;51.980;5.856;2022-12-29T02:09:46;1.38;;;0.80;;
67528;SDS011;54366;51.980;5.856;2022-12-29T02:12:15;1.17;;;0.70;;
67528;SDS011;54366;51.980;5.856;2022-12-29T02:14:44;1.33;;;0.80;;
67528;SDS011;54366;51.980;5.856;2022-12-29T02:30:35;1.38;;;0.73;;
67528;SDS011;54366;51.980;5.856;2022-12-29T02:33:23;1.63;;;1.00;;
67528;SDS011;54366;51.980;5.856;2022-12-29T02:36:20;1.07;;;0.60;;
67528;SDS011;54366;51.980;5.856;2022-12-29T02:39:07;1.10;;;0.60;;
67528;SDS011;54366;51.980;5.856;2022-12-29T02:42:14;1.58;;;0.70;;
67528;SDS011;54366;51.980;5.856;2022-12-29T02:45:02;0.98;;;0.60;;
67528;SDS011;54366;51.980;5.856;2022-12-29T02:48:08;0.88;;;0.40;;
67528;SDS011;54366;51.980;5.856;2022-12-29T02:53:17;1.38;;;0.60;;
67528;SDS011;54366;51.980;5.856;2022-12-29T02:56:05;1.55;;;0.47;;
67528;SDS011;54366;51.980;5.856;2022-12-29T02:58:31;2.33;;;0.40;;
67528;SDS011;54366;51.980;5.856;2022-12-29T03:01:08;1.02;;;0.40;;
67528;SDS011;54366;51.980;5.856;2022-12-29T03:04:37;0.90;;;0.30;;
67528;SDS011;54366;51.980;5.856;2022-12-29T03:07:26;1.55;;;0.50;;
67528;SDS011;54366;51.980;5.856;2022-12-29T03:10:15;1.30;;;0.38;;
67528;SDS011;54366;51.980;5.856;2022-12-29T03:16:07;1.27;;;0.30;;
67528;SDS011;54366;51.980;5.856;2022-12-29T03:18:51;1.83;;;0.30;;
67528;SDS011;54366;51.980;5.856;2022-12-29T03:21:37;2.33;;;0.52;;
67528;SDS011;54366;51.980;5.856;2022-12-29T03:24:38;1.02;;;0.40;;
67528;SDS011;54366;51.980;5.856;2022-12-29T03:27:09;1.88;;;0.50;;
67528;SDS011;54366;51.980;5.856;2022-12-29T03:29:40;2.05;;;0.30;;
67528;SDS011;54366;51.980;5.856;2022-12-29T03:32:13;2.08;;;0.35;;
67528;SDS011;54366;51.980;5.856;2022-12-29T03:34:41;2.17;;;0.50;;
67528;SDS011;54366;51.980;5.856;2022-12-29T03:37:12;2.28;;;0.70;;
67528;SDS011;54366;51.980;5.856;2022-12-29T03:39:42;2.17;;;0.50;;
67528;SDS011;54366;51.980;5.856;2022-12-29T03:42:11;2.80;;;0.47;;
67528;SDS011;54366;51.980;5.856;2022-12-29T03:44:42;1.65;;;0.40;;
67528;SDS011;54366;51.980;5.856;2022-12-29T03:47:11;1.40;;;0.43;;
67528;SDS011;54366;51.980;5.856;2022-12-29T03:49:39;2.00;;;0.40;;
67528;SDS011;54366;51.980;5.856;2022-12-29T03:52:13;0.75;;;0.25;;
67528;SDS011;54366;51.980;5.856;2022-12-29T03:54:42;0.93;;;0.28;;
67528;SDS011;54366;51.980;5.856;2022-12-29T03:57:10;2.70;;;0.30;;
67528;SDS011;54366;51.980;5.856;2022-12-29T03:59:53;1.40;;;0.50;;
67528;SDS011;54366;51.980;5.856;2022-12-29T04:02:19;1.50;;;0.30;;
67528;SDS011;54366;51.980;5.856;2022-12-29T04:04:46;0.77;;;0.40;;
67528;SDS011;54366;51.980;5.856;2022-12-29T04:07:13;2.25;;;0.30;;
67528;SDS011;54366;51.980;5.856;2022-12-29T04:09:40;1.50;;;0.40;;
67528;SDS011;54366;51.980;5.856;2022-12-29T04:12:09;1.75;;;0.50;;
67528;SDS011;54366;51.980;5.856;2022-12-29T04:14:35;1.48;;;0.50;;
67528;SDS011;54366;51.980;5.856;2022-12-29T04:17:02;1.25;;;0.40;;
67528;SDS011;54366;51.980;5.856;2022-12-29T04:19:29;2.92;;;0.50;;
67528;SDS011;54366;51.980;5.856;2022-12-29T04:21:55;2.22;;;0.57;;
67528;SDS011;54366;51.980;5.856;2022-12-29T04:24:22;2.35;;;0.50;;
67528;SDS011;54366;51.980;5.856;2022-12-29T04:26:49;1.30;;;0.50;;
67528;SDS011;54366;51.980;5.856;2022-12-29T04:29:34;2.88;;;0.30;;
67528;SDS011;54366;51.980;5.856;2022-12-29T04:32:10;3.15;;;0.50;;
67528;SDS011;54366;51.980;5.856;2022-12-29T04:34:42;3.33;;;0.52;;
67528;SDS011;54366;51.980;5.856;2022-12-29T04:37:09;2.33;;;0.45;;
67528;SDS011;54366;51.980;5.856;2022-12-29T04:39:35;2.05;;;0.50;;
67528;SDS011;54366;51.980;5.856;2022-12-29T04:42:03;2.90;;;0.50;;
67528;SDS011;54366;51.980;5.856;2022-12-29T04:44:29;2.13;;;0.60;;
67528;SDS011;54366;51.980;5.856;2022-12-29T04:47:08;2.17;;;0.60;;
67528;SDS011;54366;51.980;5.856;2022-12-29T04:50:10;2.45;;;0.60;;
67528;SDS011;54366;51.980;5.856;2022-12-29T04:52:50;1.80;;;0.50;;
67528;SDS011;54366;51.980;5.856;2022-12-29T04:55:16;1.40;;;0.30;;
67528;SDS011;54366;51.980;5.856;2022-12-29T04:57:43;4.57;;;0.50;;
67528;SDS011;54366;51.980;5.856;2022-12-29T05:00:13;2.65;;;0.55;;
67528;SDS011;54366;51.980;5.856;2022-12-29T05:02:41;2.08;;;0.40;;
67528;SDS011;54366;51.980;5.856;2022-12-29T05:05:07;3.92;;;0.88;;
67528;SDS011;54366;51.980;5.856;2022-12-29T05:07:38;2.85;;;0.60;;
67528;SDS011;54366;51.980;5.856;2022-12-29T05:10:05;3.47;;;0.68;;
67528;SDS011;54366;51.980;5.856;2022-12-29T05:12:33;3.30;;;0.70;;
67528;SDS011;54366;51.980;5.856;2022-12-29T05:15:01;2.65;;;0.55;;
67528;SDS011;54366;51.980;5.856;2022-12-29T05:17:28;4.88;;;0.70;;
67528;SDS011;54366;51.980;5.856;2022-12-29T05:19:55;4.93;;;0.70;;
67528;SDS011;54366;51.980;5.856;2022-12-29T05:22:21;4.45;;;0.70;;
67528;SDS011;54366;51.980;5.856;2022-12-29T05:24:48;2.85;;;0.60;;
67528;SDS011;54366;51.980;5.856;2022-12-29T05:27:15;3.67;;;0.60;;
67528;SDS011;54366;51.980;5.856;2022-12-29T05:30:11;3.35;;;0.60;;
67528;SDS011;54366;51.980;5.856;2022-12-29T05:32:38;2.35;;;0.55;;
67528;SDS011;54366;51.980;5.856;2022-12-29T05:35:05;2.95;;;0.50;;
67528;SDS011;54366;51.980;5.856;2022-12-29T05:37:33;3.45;;;0.50;;
67528;SDS011;54366;51.980;5.856;2022-12-29T05:39:59;3.15;;;0.60;;
67528;SDS011;54366;51.980;5.856;2022-12-29T05:42:27;2.45;;;0.70;;
67528;SDS011;54366;51.980;5.856;2022-12-29T05:45:12;2.45;;;0.60;;
67528;SDS011;54366;51.980;5.856;2022-12-29T05:47:53;1.35;;;0.30;;
67528;SDS011;54366;51.980;5.856;2022-12-29T05:50:49;1.23;;;0.50;;
67528;SDS011;54366;51.980;5.856;2022-12-29T05:53:31;2.75;;;0.68;;
67528;SDS011;54366;51.980;5.856;2022-12-29T05:55:58;1.98;;;0.50;;
67528;SDS011;54366;51.980;5.856;2022-12-29T05:58:25;1.58;;;0.40;;
67528;SDS011;54366;51.980;5.856;2022-12-29T06:00:51;1.75;;;0.40;;
67528;SDS011;54366;51.980;5.856;2022-12-29T06:03:18;4.60;;;0.80;;
67528;SDS011;54366;51.980;5.856;2022-12-29T06:05:46;3.60;;;0.63;;
67528;SDS011;54366;51.980;5.856;2022-12-29T06:08:14;4.10;;;0.80;;
67528;SDS011;54366;51.980;5.856;2022-12-29T06:10:40;2.00;;;0.60;;
67528;SDS011;54366;51.980;5.856;2022-12-29T06:13:07;5.25;;;0.88;;
67528;SDS011;54366;51.980;5.856;2022-12-29T06:15:36;3.00;;;0.80;;
67528;SDS011;54366;51.980;5.856;2022-12-29T06:18:05;5.55;;;0.77;;
67528;SDS011;54366;51.980;5.856;2022-12-29T06:20:33;5.72;;;0.85;;
67528;SDS011;54366;51.980;5.856;2022-12-29T06:23:02;5.82;;;0.90;;
67528;SDS011;54366;51.980;5.856;2022-12-29T06:25:29;5.25;;;1.05;;
67528;SDS011;54366;51.980;5.856;2022-12-29T06:27:58;7.65;;;1.08;;
67528;SDS011;54366;51.980;5.856;2022-12-29T06:30:24;3.67;;;0.80;;
67528;SDS011;54366;51.980;5.856;2022-12-29T06:32:50;6.85;;;0.90;;
67528;SDS011;54366;51.980;5.856;2022-12-29T06:35:18;4.93;;;1.00;;
67528;SDS011;54366;51.980;5.856;2022-12-29T06:37:48;4.75;;;0.75;;
67528;SDS011;54366;51.980;5.856;2022-12-29T06:40:15;5.03;;;0.52;;
67528;SDS011;54366;51.980;5.856;2022-12-29T06:43:13;3.47;;;0.80;;
67528;SDS011;54366;51.980;5.856;2022-12-29T06:46:02;5.75;;;1.05;;
67528;SDS011;54366;51.980;5.856;2022-12-29T06:48:29;3.33;;;0.60;;
67528;SDS011;54366;51.980;5.856;2022-12-29T06:50:56;4.80;;;0.80;;
67528;SDS011;54366;51.980;5.856;2022-12-29T06:53:22;4.85;;;0.90;;
67528;SDS011;54366;51.980;5.856;2022-12-29T06:55:48;5.05;;;1.13;;
67528;SDS011;54366;51.980;5.856;2022-12-29T06:58:14;3.35;;;0.70;;
67528;SDS011;54366;51.980;5.856;2022-12-29T07:00:41;3.90;;;0.73;;
67528;SDS011;54366;51.980;5.856;2022-12-29T07:03:07;7.18;;;0.85;;
67528;SDS011;54366;51.980;5.856;2022-12-29T07:05:33;4.70;;;0.73;;
67528;SDS011;54366;51.980;5.856;2022-12-29T07:08:00;4.80;;;0.70;;
67528;SDS011;54366;51.980;5.856;2022-12-29T07:10:26;4.35;;;0.70;;
67528;SDS011;54366;51.980;5.856;2022-12-29T07:12:53;4.72;;;0.77;;
67528;SDS011;54366;51.980;5.856;2022-12-29T07:15:19;3.97;;;0.70;;
67528;SDS011;54366;51.980;5.856;2022-12-29T07:17:46;4.68;;;0.80;;
67528;SDS011;54366;51.980;5.856;2022-12-29T07:20:12;5.77;;;0.93;;
67528;SDS011;54366;51.980;5.856;2022-12-29T07:22:38;3.80;;;0.60;;
67528;SDS011;54366;51.980;5.856;2022-12-29T07:25:05;4.53;;;1.00;;
67528;SDS011;54366;51.980;5.856;2022-12-29T07:27:31;3.33;;;0.55;;
67528;SDS011;54366;51.980;5.856;2022-12-29T07:29:57;3.10;;;0.70;;
67528;SDS011;54366;51.980;5.856;2022-12-29T07:32:24;3.38;;;0.77;;
67528;SDS011;54366;51.980;5.856;2022-12-29T07:34:50;5.93;;;0.70;;
67528;SDS011;54366;51.980;5.856;2022-12-29T07:37:16;2.65;;;0.70;;
67528;SDS011;54366;51.980;5.856;2022-12-29T07:39:43;5.15;;;0.85;;
67528;SDS011;54366;51.980;5.856;2022-12-29T07:42:09;3.95;;;0.70;;
67528;SDS011;54366;51.980;5.856;2022-12-29T07:44:44;5.00;;;0.80;;
67528;SDS011;54366;51.980;5.856;2022-12-29T07:47:32;7.50;;;1.05;;
67528;SDS011;54366;51.980;5.856;2022-12-29T07:49:58;3.50;;;0.60;;
67528;SDS011;54366;51.980;5.856;2022-12-29T07:52:25;3.85;;;0.77;;
67528;SDS011;54366;51.980;5.856;2022-12-29T07:54:57;3.97;;;0.93;;
67528;SDS011;54366;51.980;5.856;2022-12-29T07:57:24;7.22;;;1.10;;
67528;SDS011;54366;51.980;5.856;2022-12-29T07:59:50;4.72;;;1.00;;
67528;SDS011;54366;51.980;5.856;2022-12-29T08:02:16;5.55;;;0.95;;
67528;SDS011;54366;51.980;5.856;2022-12-29T08:04:43;4.22;;;1.10;;
67528;SDS011;54366;51.980;5.856;2022-12-29T08:07:09;6.38;;;0.85;;
67528;SDS011;54366;51.980;5.856;2022-12-29T08:09:35;6.38;;;1.63;;
67528;SDS011;54366;51.980;5.856;2022-12-29T08:12:02;6.93;;;0.82;;
67528;SDS011;54366;51.980;5.856;2022-12-29T08:14:28;5.57;;;1.13;;
67528;SDS011;54366;51.980;5.856;2022-12-29T08:16:54;5.70;;;1.25;;
67528;SDS011;54366;51.980;5.856;2022-12-29T08:19:21;5.90;;;1.10;;
67528;SDS011;54366;51.980;5.856;2022-12-29T08:21:47;4.95;;;0.98;;
67528;SDS011;54366;51.980;5.856;2022-12-29T08:24:13;5.70;;;1.30;;
67528;SDS011;54366;51.980;5.856;2022-12-29T08:26:39;5.30;;;1.00;;
67528;SDS011;54366;51.980;5.856;2022-12-29T08:29:07;7.53;;;1.45;;
67528;SDS011;54366;51.980;5.856;2022-12-29T08:31:33;7.93;;;1.33;;
67528;SDS011;54366;51.980;5.856;2022-12-29T08:34:00;3.40;;;1.10;;
67528;SDS011;54366;51.980;5.856;2022-12-29T08:36:29;4.47;;;1.30;;
67528;SDS011;54366;51.980;5.856;2022-12-29T08:38:56;6.35;;;1.20;;
67528;SDS011;54366;51.980;5.856;2022-12-29T08:41:22;7.15;;;1.10;;
67528;SDS011;54366;51.980;5.856;2022-12-29T08:43:49;4.90;;;1.00;;
67528;SDS011;54366;51.980;5.856;2022-12-29T08:46:16;4.80;;;1.20;;
67528;SDS011;54366;51.980;5.856;2022-12-29T08:48:42;7.82;;;1.33;;
67528;SDS011;54366;51.980;5.856;2022-12-29T08:51:09;5.75;;;1.27;;
67528;SDS011;54366;51.980;5.856;2022-12-29T08:53:35;5.60;;;1.08;;
67528;SDS011;54366;51.980;5.856;2022-12-29T08:56:01;5.32;;;1.27;;
67528;SDS011;54366;51.980;5.856;2022-12-29T08:58:29;5.57;;;1.35;;
67528;SDS011;54366;51.980;5.856;2022-12-29T09:00:56;6.57;;;1.30;;
67528;SDS011;54366;51.980;5.856;2022-12-29T09:03:23;4.40;;;1.20;;
67528;SDS011;54366;51.980;5.856;2022-12-29T09:05:51;6.72;;;1.38;;
67528;SDS011;54366;51.980;5.856;2022-12-29T09:08:18;7.55;;;1.67;;
67528;SDS011;54366;51.980;5.856;2022-12-29T09:10:45;7.13;;;1.42;;
67528;SDS011;54366;51.980;5.856;2022-12-29T09:13:12;5.20;;;1.23;;
67528;SDS011;54366;51.980;5.856;2022-12-29T09:15:39;6.80;;;1.63;;
67528;SDS011;54366;51.980;5.856;2022-12-29T09:18:06;5.88;;;1.30;;
67528;SDS011;54366;51.980;5.856;2022-12-29T09:20:33;4.88;;;1.27;;
67528;SDS011;54366;51.980;5.856;2022-12-29T09:23:00;8.52;;;1.40;;
67528;SDS011;54366;51.980;5.856;2022-12-29T09:25:27;5.38;;;1.25;;
67528;SDS011;54366;51.980;5.856;2022-12-29T09:27:53;8.25;;;1.40;;
67528;SDS011;54366;51.980;5.856;2022-12-29T09:30:20;5.78;;;1.40;;
67528;SDS011;54366;51.980;5.856;2022-12-29T09:32:49;8.27;;;1.48;;
67528;SDS011;54366;51.980;5.856;2022-12-29T09:35:16;7.05;;;1.33;;
67528;SDS011;54366;51.980;5.856;2022-12-29T09:37:42;8.48;;;1.52;;
67528;SDS011;54366;51.980;5.856;2022-12-29T09:40:17;9.05;;;1.60;;
67528;SDS011;54366;51.980;5.856;2022-12-29T09:42:58;8.68;;;1.75;;
67528;SDS011;54366;51.980;5.856;2022-12-29T09:45:55;8.38;;;1.67;;
67528;SDS011;54366;51.980;5.856;2022-12-29T09:49:04;6.57;;;1.40;;
67528;SDS011;54366;51.980;5.856;2022-12-29T09:51:43;6.13;;;1.23;;
67528;SDS011;54366;51.980;5.856;2022-12-29T09:54:37;7.30;;;1.25;;
67528;SDS011;54366;51.980;5.856;2022-12-29T09:57:16;7.45;;;1.52;;
67528;SDS011;54366;51.980;5.856;2022-12-29T09:59:48;5.78;;;1.27;;
67528;SDS011;54366;51.980;5.856;2022-12-29T10:05:02;5.40;;;1.20;;
67528;SDS011;54366;51.980;5.856;2022-12-29T10:10:40;5.32;;;1.10;;
67528;SDS011;54366;51.980;5.856;2022-12-29T10:13:43;7.47;;;1.58;;
67528;SDS011;54366;51.980;5.856;2022-12-29T10:16:35;8.02;;;1.58;;
67528;SDS011;54366;51.980;5.856;2022-12-29T10:25:37;5.82;;;1.27;;
67528;SDS011;54366;51.980;5.856;2022-12-29T10:31:04;4.53;;;0.93;;
67528;SDS011;54366;51.980;5.856;2022-12-29T10:33:53;6.18;;;1.30;;
67528;SDS011;54366;51.980;5.856;2022-12-29T10:36:27;5.15;;;1.35;;
67528;SDS011;54366;51.980;5.856;2022-12-29T10:39:10;5.47;;;1.10;;
67528;SDS011;54366;51.980;5.856;2022-12-29T10:44:54;4.65;;;0.98;;
67528;SDS011;54366;51.980;5.856;2022-12-29T10:47:23;3.83;;;1.02;;
67528;SDS011;54366;51.980;5.856;2022-12-29T10:49:55;6.37;;;1.77;;
67528;SDS011;54366;51.980;5.856;2022-12-29T10:52:24;6.85;;;1.30;;
67528;SDS011;54366;51.980;5.856;2022-12-29T10:58:04;4.47;;;1.30;;
67528;SDS011;54366;51.980;5.856;2022-12-29T11:00:32;4.63;;;1.13;;
67528;SDS011;54366;51.980;5.856;2022-12-29T11:06:11;4.85;;;1.00;;
67528;SDS011;54366;51.980;5.856;2022-12-29T11:09:02;6.10;;;1.30;;
67528;SDS011;54366;51.980;5.856;2022-12-29T11:11:39;4.07;;;1.30;;
67528;SDS011;54366;51.980;5.856;2022-12-29T11:14:12;6.72;;;1.63;;
67528;SDS011;54366;51.980;5.856;2022-12-29T11:16:43;8.65;;;2.03;;
67528;SDS011;54366;51.980;5.856;2022-12-29T11:19:20;9.60;;;1.80;;
67528;SDS011;54366;51.980;5.856;2022-12-29T11:21:49;7.50;;;2.10;;
67528;SDS011;54366;51.980;5.856;2022-12-29T11:26:52;7.38;;;2.10;;
67528;SDS011;54366;51.980;5.856;2022-12-29T11:29:24;7.43;;;2.08;;
67528;SDS011;54366;51.980;5.856;2022-12-29T11:31:53;6.30;;;2.03;;
67528;SDS011;54366;51.980;5.856;2022-12-29T11:34:34;8.00;;;2.20;;
67528;SDS011;54366;51.980;5.856;2022-12-29T11:37:04;8.55;;;2.60;;
67528;SDS011;54366;51.980;5.856;2022-12-29T11:45:47;8.65;;;3.15;;
67528;SDS011;54366;51.980;5.856;2022-12-29T11:48:17;9.93;;;3.10;;
67528;SDS011;54366;51.980;5.856;2022-12-29T11:50:49;8.88;;;2.63;;
67528;SDS011;54366;51.980;5.856;2022-12-29T11:56:15;8.73;;;2.50;;
67528;SDS011;54366;51.980;5.856;2022-12-29T11:58:42;8.73;;;2.65;;
67528;SDS011;54366;51.980;5.856;2022-12-29T12:01:33;8.02;;;3.03;;
67528;SDS011;54366;51.980;5.856;2022-12-29T12:04:06;9.52;;;2.90;;
67528;SDS011;54366;51.980;5.856;2022-12-29T12:06:48;12.35;;;2.70;;
67528;SDS011;54366;51.980;5.856;2022-12-29T12:09:36;9.60;;;2.72;;
67528;SDS011;54366;51.980;5.856;2022-12-29T12:12:20;9.77;;;2.67;;
67528;SDS011;54366;51.980;5.856;2022-12-29T12:14:56;9.93;;;2.92;;
67528;SDS011;54366;51.980;5.856;2022-12-29T12:17:51;5.93;;;2.60;;
67528;SDS011;54366;51.980;5.856;2022-12-29T12:20:44;11.82;;;3.20;;
67528;SDS011;54366;51.980;5.856;2022-12-29T12:26:50;10.93;;;3.22;;
67528;SDS011;54366;51.980;5.856;2022-12-29T12:29:41;10.75;;;2.97;;
67528;SDS011;54366;51.980;5.856;2022-12-29T12:32:22;9.27;;;2.63;;
67528;SDS011;54366;51.980;5.856;2022-12-29T12:34:54;7.95;;;2.33;;
67528;SDS011;54366;51.980;5.856;2022-12-29T12:37:35;7.07;;;2.75;;
67528;SDS011;54366;51.980;5.856;2022-12-29T12:40:58;8.00;;;2.85;;
67528;SDS011;54366;51.980;5.856;2022-12-29T12:43:44;9.60;;;3.13;;
67528;SDS011;54366;51.980;5.856;2022-12-29T12:46:57;11.43;;;3.47;;
67528;SDS011;54366;51.980;5.856;2022-12-29T12:53:43;6.57;;;2.70;;
67528;SDS011;54366;51.980;5.856;2022-12-29T12:56:00;9.75;;;3.10;;
67528;SDS011;54366;51.980;5.856;2022-12-29T12:58:57;11.38;;;2.65;;
67528;SDS011;54366;51.980;5.856;2022-12-29T13:01:40;11.00;;;3.33;;
67528;SDS011;54366;51.980;5.856;2022-12-29T13:04:29;10.10;;;3.08;;
67528;SDS011;54366;51.980;5.856;2022-12-29T13:07:33;6.50;;;2.53;;
67528;SDS011;54366;51.980;5.856;2022-12-29T13:10:16;10.98;;;3.15;;
67528;SDS011;54366;51.980;5.856;2022-12-29T13:13:16;9.55;;;2.38;;
67528;SDS011;54366;51.980;5.856;2022-12-29T13:16:23;9.80;;;3.10;;
67528;SDS011;54366;51.980;5.856;2022-12-29T13:19:14;7.80;;;2.70;;
67528;SDS011;54366;51.980;5.856;2022-12-29T13:25:47;10.00;;;2.60;;
67528;SDS011;54366;51.980;5.856;2022-12-29T13:28:58;9.27;;;2.67;;
67528;SDS011;54366;51.980;5.856;2022-12-29T13:31:15;10.50;;;2.70;;
67528;SDS011;54366;51.980;5.856;2022-12-29T13:37:10;6.30;;;2.33;;
67528;SDS011;54366;51.980;5.856;2022-12-29T13:39:42;8.48;;;2.50;;
67528;SDS011;54366;51.980;5.856;2022-12-29T13:42:13;6.22;;;2.08;;
67528;SDS011;54366;51.980;5.856;2022-12-29T13:44:46;9.32;;;2.50;;
67528;SDS011;54366;51.980;5.856;2022-12-29T13:47:26;8.57;;;2.78;;
67528;SDS011;54366;51.980;5.856;2022-12-29T13:50:05;7.95;;;2.80;;
67528;SDS011;54366;51.980;5.856;2022-12-29T13:56:16;8.75;;;2.53;;
67528;SDS011;54366;51.980;5.856;2022-12-29T13:58:48;6.10;;;2.15;;
67528;SDS011;54366;51.980;5.856;2022-12-29T14:01:34;6.50;;;1.88;;
67528;SDS011;54366;51.980;5.856;2022-12-29T14:04:12;11.45;;;2.72;;
67528;SDS011;54366;51.980;5.856;2022-12-29T14:06:40;5.88;;;2.03;;
67528;SDS011;54366;51.980;5.856;2022-12-29T14:12:35;9.93;;;2.60;;
67528;SDS011;54366;51.980;5.856;2022-12-29T14:15:05;8.50;;;2.60;;
67528;SDS011;54366;51.980;5.856;2022-12-29T14:18:03;7.50;;;2.08;;
67528;SDS011;54366;51.980;5.856;2022-12-29T14:20:37;4.78;;;1.20;;
67528;SDS011;54366;51.980;5.856;2022-12-29T14:23:16;3.95;;;1.17;;
67528;SDS011;54366;51.980;5.856;2022-12-29T14:26:09;3.78;;;1.20;;
67528;SDS011;54366;51.980;5.856;2022-12-29T14:28:42;3.10;;;0.70;;
67528;SDS011;54366;51.980;5.856;2022-12-29T14:34:16;2.33;;;0.55;;
67528;SDS011;54366;51.980;5.856;2022-12-29T14:37:01;2.90;;;0.60;;
67528;SDS011;54366;51.980;5.856;2022-12-29T14:39:35;2.42;;;0.65;;
67528;SDS011;54366;51.980;5.856;2022-12-29T14:42:13;1.55;;;0.55;;
67528;SDS011;54366;51.980;5.856;2022-12-29T14:45:01;1.15;;;0.70;;
67528;SDS011;54366;51.980;5.856;2022-12-29T14:47:50;2.40;;;1.13;;
67528;SDS011;54366;51.980;5.856;2022-12-29T14:50:21;4.25;;;0.98;;
67528;SDS011;54366;51.980;5.856;2022-12-29T14:53:42;3.20;;;1.00;;
67528;SDS011;54366;51.980;5.856;2022-12-29T14:56:24;2.72;;;0.70;;
67528;SDS011;54366;51.980;5.856;2022-12-29T14:58:54;4.15;;;1.30;;
67528;SDS011;54366;51.980;5.856;2022-12-29T15:01:34;3.33;;;1.00;;
67528;SDS011;54366;51.980;5.856;2022-12-29T15:07:09;2.63;;;1.10;;
67528;SDS011;54366;51.980;5.856;2022-12-29T15:09:36;4.43;;;1.25;;
67528;SDS011;54366;51.980;5.856;2022-12-29T15:15:21;3.45;;;1.60;;
67528;SDS011;54366;51.980;5.856;2022-12-29T15:17:50;4.13;;;1.10;;
67528;SDS011;54366;51.980;5.856;2022-12-29T15:20:24;5.25;;;1.38;;
67528;SDS011;54366;51.980;5.856;2022-12-29T15:22:56;5.28;;;1.75;;
67528;SDS011;54366;51.980;5.856;2022-12-29T15:25:47;6.65;;;1.70;;
67528;SDS011;54366;51.980;5.856;2022-12-29T15:28:20;6.57;;;1.60;;
67528;SDS011;54366;51.980;5.856;2022-12-29T15:30:54;4.53;;;1.30;;
67528;SDS011;54366;51.980;5.856;2022-12-29T15:33:22;5.38;;;1.40;;
67528;SDS011;54366;51.980;5.856;2022-12-29T15:35:52;5.25;;;1.42;;
67528;SDS011;54366;51.980;5.856;2022-12-29T15:38:21;8.50;;;1.70;;
67528;SDS011;54366;51.980;5.856;2022-12-29T15:40:53;5.47;;;1.63;;
67528;SDS011;54366;51.980;5.856;2022-12-29T15:46:30;3.67;;;1.30;;
67528;SDS011;54366;51.980;5.856;2022-12-29T15:48:57;6.55;;;1.70;;
67528;SDS011;54366;51.980;5.856;2022-12-29T15:51:30;5.70;;;1.60;;
67528;SDS011;54366;51.980;5.856;2022-12-29T15:54:02;7.97;;;1.67;;
67528;SDS011;54366;51.980;5.856;2022-12-29T15:56:30;6.07;;;1.73;;
67528;SDS011;54366;51.980;5.856;2022-12-29T15:58:58;2.50;;;0.88;;
67528;SDS011;54366;51.980;5.856;2022-12-29T16:01:31;6.22;;;1.45;;
67528;SDS011;54366;51.980;5.856;2022-12-29T16:04:00;5.97;;;1.50;;
67528;SDS011;54366;51.980;5.856;2022-12-29T16:06:36;5.90;;;1.40;;
67528;SDS011;54366;51.980;5.856;2022-12-29T16:11:59;6.63;;;1.65;;
67528;SDS011;54366;51.980;5.856;2022-12-29T16:14:40;5.88;;;1.75;;
67528;SDS011;54366;51.980;5.856;2022-12-29T16:17:14;5.22;;;1.30;;
67528;SDS011;54366;51.980;5.856;2022-12-29T16:19:53;3.70;;;1.08;;
67528;SDS011;54366;51.980;5.856;2022-12-29T16:22:26;4.43;;;1.00;;
67528;SDS011;54366;51.980;5.856;2022-12-29T16:25:02;4.78;;;1.38;;
67528;SDS011;54366;51.980;5.856;2022-12-29T16:27:36;5.88;;;1.45;;
67528;SDS011;54366;51.980;5.856;2022-12-29T16:30:12;3.15;;;1.10;;
67528;SDS011;54366;51.980;5.856;2022-12-29T16:32:47;3.85;;;1.10;;
67528;SDS011;54366;51.980;5.856;2022-12-29T16:38:17;3.78;;;1.40;;
67528;SDS011;54366;51.980;5.856;2022-12-29T16:40:56;7.50;;;1.50;;
67528;SDS011;54366;51.980;5.856;2022-12-29T16:43:30;4.28;;;1.10;;
67528;SDS011;54366;51.980;5.856;2022-12-29T16:46:21;6.38;;;1.50;;
67528;SDS011;54366;51.980;5.856;2022-12-29T16:48:55;4.35;;;1.38;;
67528;SDS011;54366;51.980;5.856;2022-12-29T16:51:32;5.80;;;1.50;;
67528;SDS011;54366;51.980;5.856;2022-12-29T16:54:01;4.53;;;1.23;;
67528;SDS011;54366;51.980;5.856;2022-12-29T16:56:30;5.85;;;1.35;;
67528;SDS011;54366;51.980;5.856;2022-12-29T16:59:16;6.20;;;1.10;;
67528;SDS011;54366;51.980;5.856;2022-12-29T17:01:59;3.92;;;1.08;;
67528;SDS011;54366;51.980;5.856;2022-12-29T17:04:30;3.13;;;0.90;;
67528;SDS011;54366;51.980;5.856;2022-12-29T17:06:57;3.70;;;1.00;;